createdAt,value
2022-09-12T00:01:17.079Z,9.60
2022-09-12T00:02:58.225Z,9.50
2022-09-12T00:04:34.761Z,9.50
2022-09-12T00:06:23.108Z,9.50
2022-09-12T00:08:01.520Z,9.50
2022-09-12T00:09:38.462Z,9.50
2022-09-12T00:11:15.777Z,9.50
2022-09-12T00:12:53.570Z,9.50
2022-09-12T00:14:30.777Z,9.50
2022-09-12T00:16:08.323Z,9.50
2022-09-12T00:17:45.082Z,9.50
2022-09-12T00:19:22.278Z,9.40
2022-09-12T00:21:03.900Z,9.40
2022-09-12T00:22:40.987Z,9.40
2022-09-12T00:24:18.473Z,9.40
2022-09-12T00:25:55.382Z,9.40
2022-09-12T00:27:32.286Z,9.40
2022-09-12T00:29:08.791Z,9.40
2022-09-12T00:30:47.073Z,9.40
2022-09-12T00:32:24.890Z,9.30
2022-09-12T00:34:03.745Z,9.30
2022-09-12T00:35:49.774Z,9.30
2022-09-12T00:37:26.433Z,9.30
2022-09-12T00:39:03.762Z,9.30
2022-09-12T00:40:41.050Z,9.30
2022-09-12T00:42:18.057Z,9.30
2022-09-12T00:44:04.474Z,9.30
2022-09-12T00:45:42.592Z,9.30
2022-09-12T00:47:32.909Z,9.30
2022-09-12T00:49:35.215Z,9.30
2022-09-12T00:51:14.921Z,9.30
2022-09-12T00:53:11.403Z,9.30
2022-09-12T00:55:19.466Z,9.30
2022-09-12T00:57:01.737Z,9.30
2022-09-12T00:58:50.508Z,9.30
2022-09-12T01:00:29.550Z,9.20
2022-09-12T01:02:07.481Z,9.30
2022-09-12T01:03:44.498Z,9.20
2022-09-12T01:05:22.741Z,9.30
2022-09-12T01:07:01.398Z,9.20
2022-09-12T01:08:40.914Z,9.30
2022-09-12T01:10:18.187Z,9.30
2022-09-12T01:11:56.402Z,9.30
2022-09-12T01:13:36.661Z,9.30
2022-09-12T01:15:14.924Z,9.30
2022-09-12T01:16:53.228Z,9.30
2022-09-12T01:18:53.164Z,9.30
2022-09-12T01:21:02.348Z,9.30
2022-09-12T01:23:02.862Z,9.30
2022-09-12T01:25:18.798Z,9.30
2022-09-12T01:27:31.637Z,9.20
2022-09-12T01:29:44.718Z,9.20
2022-09-12T01:31:57.380Z,9.20
2022-09-12T01:34:00.529Z,9.20
2022-09-12T01:35:57.549Z,9.20
2022-09-12T01:37:50.382Z,9.20
2022-09-12T01:39:38.026Z,9.20
2022-09-12T01:41:37.805Z,9.20
2022-09-12T01:43:46.859Z,9.20
2022-09-12T01:45:37.700Z,9.20
2022-09-12T01:47:44.365Z,9.20
2022-09-12T01:49:50.889Z,9.30
2022-09-12T01:52:03.564Z,9.30
2022-09-12T01:53:56.723Z,9.30
2022-09-12T01:55:46.382Z,9.30
2022-09-12T01:57:51.693Z,9.30
2022-09-12T01:59:40.744Z,9.30
2022-09-12T02:01:34.129Z,9.20
2022-09-12T02:03:16.560Z,9.30
2022-09-12T02:05:12.083Z,9.20
2022-09-12T02:07:15.501Z,9.20
2022-09-12T02:09:11.657Z,9.20
2022-09-12T02:11:15.854Z,9.20
2022-09-12T02:13:00.497Z,9.20
2022-09-12T02:14:51.154Z,9.10
2022-09-12T02:16:52.813Z,9.10
2022-09-12T02:18:33.869Z,9.10
2022-09-12T02:20:48.428Z,9.10
2022-09-12T02:22:40.330Z,9.10
2022-09-12T02:24:20.558Z,9.10
2022-09-12T02:26:12.033Z,9.10
2022-09-12T02:27:58.309Z,9.10
2022-09-12T02:29:35.237Z,9.10
2022-09-12T02:31:36.114Z,9.10
2022-09-12T02:33:47.406Z,9.10
2022-09-12T02:35:54.962Z,9.10
2022-09-12T02:37:55.402Z,9.10
2022-09-12T02:39:33.256Z,9.10
2022-09-12T02:41:11.410Z,9.10
2022-09-12T02:42:48.438Z,9.10
2022-09-12T02:44:28.143Z,9.10
2022-09-12T02:46:07.546Z,9.10
2022-09-12T02:48:01.808Z,9.10
2022-09-12T02:49:40.466Z,9.10
2022-09-12T02:51:23.429Z,9.10
2022-09-12T02:53:04.698Z,9.10
2022-09-12T02:54:42.269Z,9.10
2022-09-12T02:56:28.595Z,9.00
2022-09-12T02:58:09.643Z,9.10
2022-09-12T02:59:48.625Z,9.10
2022-09-12T03:02:18.236Z,9.10
2022-09-12T03:04:21.325Z,9.10
2022-09-12T03:06:04.151Z,9.10
2022-09-12T03:08:15.434Z,9.10
2022-09-12T03:10:11.702Z,9.10
2022-09-12T03:12:28.846Z,9.20
2022-09-12T03:14:41.741Z,9.20
2022-09-12T03:16:48.003Z,9.20
2022-09-12T03:19:01.236Z,9.20
2022-09-12T03:21:06.794Z,9.20
2022-09-12T03:22:57.704Z,9.20
2022-09-12T03:25:07.379Z,9.20
2022-09-12T03:27:23.597Z,9.20
2022-09-12T03:29:03.017Z,9.20
2022-09-12T03:30:49.219Z,9.20
2022-09-12T03:32:51.475Z,9.20
2022-09-12T03:34:30.988Z,9.20
2022-09-12T03:36:09.034Z,9.20
2022-09-12T03:37:47.495Z,9.20
2022-09-12T03:39:26.821Z,9.20
2022-09-12T03:41:04.052Z,9.20
2022-09-12T03:42:42.075Z,9.20
2022-09-12T03:44:19.759Z,9.30
2022-09-12T03:45:56.472Z,9.30
2022-09-12T03:47:33.570Z,9.30
2022-09-12T03:49:10.940Z,9.30
2022-09-12T03:50:47.643Z,9.40
2022-09-12T03:52:24.713Z,9.40
2022-09-12T03:54:01.924Z,9.40
2022-09-12T03:55:41.579Z,9.40
2022-09-12T03:57:18.813Z,9.40
2022-09-12T03:58:56.483Z,9.40
2022-09-12T04:00:33.965Z,9.40
2022-09-12T04:02:13.326Z,9.50
2022-09-12T04:03:53.044Z,9.50
2022-09-12T04:05:30.598Z,9.50
2022-09-12T04:07:07.577Z,9.50
2022-09-12T04:08:50.519Z,9.50
2022-09-12T04:10:28.789Z,9.60
2022-09-12T04:12:05.554Z,9.60
2022-09-12T04:13:45.192Z,9.60
2022-09-12T04:15:23.051Z,9.60
2022-09-12T04:16:59.997Z,9.60
2022-09-12T04:18:37.827Z,9.70
2022-09-12T04:20:14.873Z,9.70
2022-09-12T04:21:51.554Z,9.70
2022-09-12T04:23:28.553Z,9.70
2022-09-12T04:25:06.602Z,9.70
2022-09-12T04:26:43.884Z,9.70
2022-09-12T04:28:20.894Z,9.70
2022-09-12T04:29:58.180Z,9.70
2022-09-12T04:31:35.361Z,9.70
2022-09-12T04:33:12.022Z,9.70
2022-09-12T04:34:49.176Z,9.80
2022-09-12T04:36:27.137Z,9.80
2022-09-12T04:38:04.134Z,9.80
2022-09-12T04:39:41.328Z,9.80
2022-09-12T04:41:34.674Z,9.80
2022-09-12T04:43:14.484Z,9.90
2022-09-12T04:44:53.107Z,9.90
2022-09-12T04:46:32.317Z,9.90
2022-09-12T04:48:09.174Z,9.90
2022-09-12T04:49:46.109Z,9.90
2022-09-12T04:51:27.799Z,9.90
2022-09-12T04:53:05.226Z,9.90
2022-09-12T04:54:42.292Z,9.90
2022-09-12T04:56:20.629Z,10.00
2022-09-12T04:57:57.486Z,10.00
2022-09-12T04:59:34.505Z,10.00
2022-09-12T05:01:17.163Z,10.00
2022-09-12T05:02:54.043Z,10.00
2022-09-12T05:04:31.626Z,10.10
2022-09-12T05:06:13.085Z,10.10
2022-09-12T05:07:49.728Z,10.10
2022-09-12T05:09:26.449Z,10.10
2022-09-12T05:11:14.355Z,10.10
2022-09-12T05:12:51.771Z,10.10
2022-09-12T05:14:28.965Z,10.00
2022-09-12T05:16:07.897Z,10.10
2022-09-12T05:17:45.945Z,10.10
2022-09-12T05:19:23.590Z,10.10
2022-09-12T05:21:02.950Z,10.10
2022-09-12T05:22:39.746Z,10.10
2022-09-12T05:24:16.829Z,10.10
2022-09-12T05:25:56.412Z,10.20
2022-09-12T05:27:33.683Z,10.20
2022-09-12T05:29:10.328Z,10.10
2022-09-12T05:30:47.122Z,10.20
2022-09-12T05:32:24.915Z,10.30
2022-09-12T05:34:01.219Z,10.30
2022-09-12T05:35:38.382Z,10.30
2022-09-12T05:37:15.947Z,10.40
2022-09-12T05:38:53.237Z,10.40
2022-09-12T05:40:29.866Z,10.40
2022-09-12T05:42:07.300Z,10.40
2022-09-12T05:43:45.296Z,10.50
2022-09-12T05:45:22.843Z,10.50
2022-09-12T05:46:59.700Z,10.60
2022-09-12T05:48:37.162Z,10.60
2022-09-12T05:50:13.816Z,10.70
2022-09-12T05:51:51.693Z,10.70
2022-09-12T05:53:31.803Z,10.70
2022-09-12T05:55:09.180Z,10.70
2022-09-12T05:56:47.156Z,10.70
2022-09-12T05:58:25.429Z,10.80
2022-09-12T06:00:02.241Z,10.80
2022-09-12T06:01:39.255Z,10.80
2022-09-12T06:03:17.763Z,10.80
2022-09-12T06:04:54.966Z,10.80
2022-09-12T06:06:34.413Z,10.90
2022-09-12T06:08:11.977Z,10.90
2022-09-12T06:09:48.795Z,10.90
2022-09-12T06:11:28.787Z,10.90
2022-09-12T06:13:06.041Z,11.00
2022-09-12T06:14:43.545Z,11.00
2022-09-12T06:16:26.589Z,11.10
2022-09-12T06:18:03.969Z,11.10
2022-09-12T06:19:41.298Z,11.20
2022-09-12T06:21:19.165Z,11.20
2022-09-12T06:22:55.083Z,11.30
2022-09-12T06:24:45.660Z,11.40
2022-09-12T06:26:36.433Z,11.40
2022-09-12T06:28:27.339Z,11.50
2022-09-12T06:30:20.323Z,11.60
2022-09-12T06:31:54.756Z,11.60
2022-09-12T06:33:26.918Z,11.70
2022-09-12T06:34:58.967Z,11.70
2022-09-12T06:36:33.906Z,11.80
2022-09-12T06:38:06.582Z,11.90
2022-09-12T06:39:39.093Z,12.00
2022-09-12T06:41:12.431Z,12.00
2022-09-12T06:42:44.498Z,12.00
2022-09-12T06:44:19.795Z,12.00
2022-09-12T06:45:52.295Z,11.90
2022-09-12T06:47:24.364Z,12.00
2022-09-12T06:48:59.410Z,12.00
2022-09-12T06:50:31.893Z,12.00
2022-09-12T06:52:04.105Z,12.00
2022-09-12T06:53:37.237Z,12.10
2022-09-12T06:55:09.590Z,12.10
2022-09-12T06:56:42.090Z,12.10
2022-09-12T06:58:14.120Z,12.20
2022-09-12T06:59:46.172Z,12.30
2022-09-12T07:01:21.324Z,12.30
2022-09-12T07:02:56.492Z,12.30
2022-09-12T07:04:29.078Z,12.50
2022-09-12T07:06:10.914Z,12.40
2022-09-12T07:07:42.987Z,12.50
2022-09-12T07:09:18.267Z,12.60
2022-09-12T07:10:50.431Z,12.70
2022-09-12T07:12:22.489Z,12.60
2022-09-12T07:13:56.659Z,12.70
2022-09-12T07:15:29.186Z,12.70
2022-09-12T07:17:01.298Z,12.90
2022-09-12T07:18:34.865Z,13.10
2022-09-12T07:20:07.718Z,13.20
2022-09-12T07:21:40.881Z,13.30
2022-09-12T07:23:13.608Z,13.30
2022-09-12T07:24:45.993Z,13.40
2022-09-12T07:26:18.674Z,13.30
2022-09-12T07:27:53.086Z,13.30
2022-09-12T07:29:36.670Z,13.40
2022-09-12T07:31:15.197Z,13.30
2022-09-12T07:32:47.292Z,13.40
2022-09-12T07:34:19.510Z,13.40
2022-09-12T07:35:53.315Z,13.40
2022-09-12T07:37:25.547Z,13.50
2022-09-12T07:38:58.251Z,13.50
2022-09-12T07:40:32.530Z,13.50
2022-09-12T07:42:05.173Z,13.60
2022-09-12T07:43:38.412Z,13.70
2022-09-12T07:45:11.235Z,13.60
2022-09-12T07:46:43.523Z,13.70
2022-09-12T07:48:16.369Z,13.70
2022-09-12T07:49:48.573Z,13.80
2022-09-12T07:51:21.661Z,13.90
2022-09-12T07:52:55.190Z,13.90
2022-09-12T07:54:27.717Z,14.00
2022-09-12T07:56:00.779Z,14.10
2022-09-12T07:57:32.875Z,14.20
2022-09-12T07:59:05.088Z,14.40
2022-09-12T08:00:37.842Z,14.40
2022-09-12T08:02:17.405Z,14.50
2022-09-12T08:03:53.899Z,14.60
2022-09-12T08:05:26.615Z,14.70
2022-09-12T08:06:58.669Z,14.80
2022-09-12T08:08:30.731Z,14.90
2022-09-12T08:10:03.177Z,15.00
2022-09-12T08:11:35.447Z,15.00
2022-09-12T08:13:09.397Z,15.10
2022-09-12T08:14:42.783Z,15.20
2022-09-12T08:16:21.454Z,15.20
2022-09-12T08:17:53.732Z,15.30
2022-09-12T08:19:25.826Z,15.50
2022-09-12T08:20:59.529Z,15.50
2022-09-12T08:22:31.671Z,15.50
2022-09-12T08:24:06.178Z,15.60
2022-09-12T08:25:41.201Z,15.70
2022-09-12T08:27:14.754Z,15.90
2022-09-12T08:28:47.008Z,16.00
2022-09-12T08:30:19.566Z,16.10
2022-09-12T08:31:56.526Z,16.20
2022-09-12T08:33:33.580Z,16.30
2022-09-12T08:35:06.103Z,16.80
2022-09-12T08:36:38.369Z,17.00
2022-09-12T08:38:11.359Z,17.20
2022-09-12T08:39:44.107Z,17.60
2022-09-12T08:41:16.131Z,17.70
2022-09-12T08:43:14.143Z,17.90
2022-09-12T08:45:31.088Z,18.10
2022-09-12T08:47:17.192Z,18.10
2022-09-12T08:48:49.664Z,18.00
2022-09-12T08:50:26.680Z,17.90
2022-09-12T08:52:02.797Z,17.80
2022-09-12T08:53:37.211Z,17.60
2022-09-12T08:55:26.772Z,17.70
2022-09-12T08:57:03.737Z,17.60
2022-09-12T08:58:41.350Z,17.60
2022-09-12T09:00:21.787Z,17.70
2022-09-12T09:01:58.902Z,17.70
2022-09-12T09:03:39.838Z,17.50
2022-09-12T09:05:24.494Z,17.40
2022-09-12T09:07:17.202Z,17.40
2022-09-12T09:09:02.839Z,17.50
2022-09-12T09:10:46.697Z,17.40
2022-09-12T09:12:25.043Z,17.40
2022-09-12T09:14:37.306Z,17.30
2022-09-12T09:16:12.370Z,17.00
2022-09-12T09:17:49.979Z,16.90
2022-09-12T09:19:50.873Z,16.80
2022-09-12T09:21:35.363Z,16.60
2022-09-12T09:23:25.978Z,16.40
2022-09-12T09:25:06.394Z,16.50
2022-09-12T09:26:57.007Z,16.30
2022-09-12T09:28:42.600Z,16.20
2022-09-12T09:30:17.923Z,16.10
2022-09-12T09:31:54.087Z,16.00
2022-09-12T09:33:34.858Z,15.90
2022-09-12T09:35:48.810Z,15.80
2022-09-12T09:37:42.356Z,15.70
2022-09-12T09:39:29.252Z,15.40
2022-09-12T09:41:15.001Z,15.40
2022-09-12T09:43:18.531Z,15.30
2022-09-12T09:44:53.875Z,15.30
2022-09-12T09:46:27.868Z,15.30
2022-09-12T09:48:13.798Z,15.40
2022-09-12T09:49:47.280Z,15.60
2022-09-12T09:51:27.176Z,15.60
2022-09-12T09:53:02.282Z,15.80
2022-09-12T09:54:58.114Z,15.90
2022-09-12T09:56:35.011Z,16.00
2022-09-12T09:58:07.383Z,16.10
2022-09-12T09:59:39.374Z,16.20
2022-09-12T10:01:17.294Z,16.20
2022-09-12T10:03:11.311Z,16.20
2022-09-12T10:04:57.603Z,16.20
2022-09-12T10:06:32.907Z,16.10
2022-09-12T10:08:07.873Z,16.00
2022-09-12T10:09:40.242Z,15.90
2022-09-12T10:11:15.471Z,15.80
2022-09-12T10:12:47.513Z,15.80
2022-09-12T10:14:42.681Z,15.80
2022-09-12T10:16:27.918Z,15.80
2022-09-12T10:18:00.142Z,15.70
2022-09-12T10:19:39.908Z,15.60
2022-09-12T10:21:24.521Z,15.50
2022-09-12T10:22:59.592Z,15.60
2022-09-12T10:24:42.153Z,15.50
2022-09-12T10:26:18.327Z,15.60
2022-09-12T10:27:59.414Z,15.60
2022-09-12T10:29:39.315Z,15.50
2022-09-12T10:31:29.145Z,15.50
2022-09-12T10:33:11.594Z,15.40
2022-09-12T10:34:45.511Z,15.40
2022-09-12T10:36:17.794Z,15.50
2022-09-12T10:37:55.451Z,15.60
2022-09-12T10:39:27.975Z,15.50
2022-09-12T10:41:10.098Z,15.60
2022-09-12T10:43:03.044Z,15.80
2022-09-12T10:44:35.342Z,15.90
2022-09-12T10:46:16.441Z,16.00
2022-09-12T10:47:49.445Z,16.10
2022-09-12T10:49:37.991Z,16.20
2022-09-12T10:51:25.989Z,16.30
2022-09-12T10:53:22.227Z,16.40
2022-09-12T10:54:54.553Z,16.40
2022-09-12T10:56:35.066Z,16.40
2022-09-12T10:58:34.770Z,16.40
2022-09-12T11:00:17.023Z,16.40
2022-09-12T11:01:59.852Z,16.50
2022-09-12T11:04:06.702Z,16.40
2022-09-12T11:05:53.887Z,16.30
2022-09-12T11:07:35.184Z,16.30
2022-09-12T11:09:53.939Z,16.30
2022-09-12T11:12:09.774Z,16.40
2022-09-12T11:13:44.944Z,16.50
2022-09-12T11:15:41.690Z,16.70
2022-09-12T11:17:33.624Z,16.70
2022-09-12T11:19:19.073Z,16.80
2022-09-12T11:21:23.416Z,16.70
2022-09-12T11:23:17.095Z,16.80
2022-09-12T11:25:27.609Z,16.80
2022-09-12T11:27:05.431Z,16.80
2022-09-12T11:29:01.239Z,16.70
2022-09-12T11:30:59.772Z,16.70
2022-09-12T11:33:05.647Z,16.70
2022-09-12T11:34:59.811Z,16.70
2022-09-12T11:37:07.391Z,16.80
2022-09-12T11:39:27.124Z,16.90
2022-09-12T11:41:19.317Z,17.00
2022-09-12T11:42:56.415Z,17.10
2022-09-12T11:44:33.096Z,17.10
2022-09-12T11:46:10.753Z,17.10
2022-09-12T11:47:48.161Z,17.20
2022-09-12T11:49:20.327Z,17.20
2022-09-12T11:50:52.950Z,17.20
2022-09-12T11:52:29.175Z,17.20
2022-09-12T11:54:19.907Z,17.20
2022-09-12T11:56:18.656Z,17.30
2022-09-12T11:57:55.112Z,17.30
2022-09-12T11:59:33.635Z,17.20
2022-09-12T12:01:24.880Z,17.30
2022-09-12T12:03:34.506Z,17.30
2022-09-12T12:05:22.350Z,17.30
2022-09-12T12:07:11.348Z,17.10
2022-09-12T12:08:46.157Z,17.10
2022-09-12T12:10:30.122Z,17.10
2022-09-12T12:12:08.570Z,17.10
2022-09-12T12:13:50.603Z,17.10
2022-09-12T12:15:25.263Z,17.10
2022-09-12T12:16:58.466Z,17.20
2022-09-12T12:18:33.627Z,17.20
2022-09-12T12:20:08.611Z,17.20
2022-09-12T12:21:43.930Z,17.20
2022-09-12T12:24:05.271Z,17.30
2022-09-12T12:25:52.842Z,17.30
2022-09-12T12:27:51.949Z,17.40
2022-09-12T12:29:23.939Z,17.30
2022-09-12T12:30:56.738Z,17.40
2022-09-12T12:32:28.858Z,17.30
2022-09-12T12:34:04.104Z,17.40
2022-09-12T12:35:36.612Z,17.30
2022-09-12T12:37:29.702Z,17.50
2022-09-12T12:39:31.735Z,17.50
2022-09-12T12:41:18.839Z,17.60
2022-09-12T12:42:58.236Z,17.70
2022-09-12T12:44:45.307Z,17.70
2022-09-12T12:46:19.212Z,17.70
2022-09-12T12:48:03.165Z,17.70
2022-09-12T12:49:38.493Z,17.50
2022-09-12T12:51:38.343Z,17.60
2022-09-12T12:53:25.779Z,17.70
2022-09-12T12:55:01.529Z,18.00
2022-09-12T12:56:42.044Z,18.10
2022-09-12T12:58:33.091Z,18.20
2022-09-12T13:00:09.700Z,18.50
2022-09-12T13:01:54.228Z,18.60
2022-09-12T13:03:31.682Z,18.90
2022-09-12T13:05:14.735Z,18.90
2022-09-12T13:06:57.947Z,19.10
2022-09-12T13:08:33.015Z,19.20
2022-09-12T13:10:07.925Z,19.50
2022-09-12T13:11:41.262Z,19.70
2022-09-12T13:13:25.123Z,19.90
2022-09-12T13:15:00.846Z,20.00
2022-09-12T13:16:38.802Z,20.00
2022-09-12T13:18:14.674Z,20.10
2022-09-12T13:19:48.308Z,20.30
2022-09-12T13:21:21.731Z,20.20
2022-09-12T13:22:54.115Z,20.10
2022-09-12T13:24:26.158Z,20.00
2022-09-12T13:26:00.827Z,19.90
2022-09-12T13:27:34.070Z,19.80
2022-09-12T13:29:26.664Z,19.80
2022-09-12T13:31:01.793Z,19.70
2022-09-12T13:32:34.314Z,19.60
2022-09-12T13:34:09.706Z,19.50
2022-09-12T13:35:54.187Z,19.60
2022-09-12T13:37:38.166Z,19.60
2022-09-12T13:39:39.888Z,19.60
2022-09-12T13:41:40.260Z,19.60
2022-09-12T13:43:17.766Z,19.70
2022-09-12T13:45:05.840Z,19.60
2022-09-12T13:46:38.116Z,19.50
2022-09-12T13:48:30.928Z,19.50
2022-09-12T13:50:06.008Z,19.50
2022-09-12T13:51:38.322Z,19.60
2022-09-12T13:53:17.462Z,19.70
2022-09-12T13:54:53.564Z,20.00
2022-09-12T13:56:26.100Z,20.00
2022-09-12T13:58:03.830Z,19.90
2022-09-12T13:59:44.298Z,19.90
2022-09-12T14:01:16.540Z,20.00
2022-09-12T14:02:49.349Z,20.10
2022-09-12T14:04:40.147Z,20.00
2022-09-12T14:06:16.389Z,19.90
2022-09-12T14:07:54.358Z,19.90
2022-09-12T14:09:32.552Z,19.90
2022-09-12T14:11:12.001Z,19.80
2022-09-12T14:12:50.718Z,19.80
2022-09-12T14:14:23.019Z,19.70
2022-09-12T14:15:56.950Z,19.60
2022-09-12T14:17:31.843Z,19.50
2022-09-12T14:19:05.338Z,19.60
2022-09-12T14:20:39.413Z,19.40
2022-09-12T14:22:18.091Z,19.40
2022-09-12T14:23:51.684Z,19.40
2022-09-12T14:25:25.496Z,19.30
2022-09-12T14:26:58.054Z,19.30
2022-09-12T14:28:31.178Z,19.20
2022-09-12T14:30:09.149Z,19.20
2022-09-12T14:31:41.318Z,19.20
2022-09-12T14:33:18.065Z,19.10
2022-09-12T14:35:11.987Z,19.00
2022-09-12T14:36:48.639Z,19.00
2022-09-12T14:38:30.168Z,18.90
2022-09-12T14:40:03.564Z,18.70
2022-09-12T14:41:39.555Z,18.70
2022-09-12T14:43:40.747Z,18.70
2022-09-12T14:45:30.203Z,18.60
2022-09-12T14:47:20.047Z,18.60
2022-09-12T14:48:56.499Z,18.50
2022-09-12T14:50:35.335Z,18.50
2022-09-12T14:52:23.288Z,18.40
2022-09-12T14:53:55.424Z,18.40
2022-09-12T14:55:31.131Z,18.40
2022-09-12T14:57:24.895Z,18.30
2022-09-12T14:59:20.960Z,18.30
2022-09-12T15:01:21.877Z,18.20
2022-09-12T15:02:54.625Z,18.20
2022-09-12T15:04:43.297Z,18.10
2022-09-12T15:06:23.641Z,18.00
2022-09-12T15:07:58.868Z,18.00
2022-09-12T15:09:31.056Z,18.10
2022-09-12T15:11:06.580Z,18.20
2022-09-12T15:12:40.059Z,18.20
2022-09-12T15:14:13.780Z,18.20
2022-09-12T15:15:57.836Z,18.20
2022-09-12T15:17:29.998Z,18.20
2022-09-12T15:19:02.108Z,18.10
2022-09-12T15:20:40.512Z,18.00
2022-09-12T15:22:13.702Z,17.90
2022-09-12T15:23:53.790Z,17.90
2022-09-12T15:25:25.906Z,17.90
2022-09-12T15:26:58.560Z,17.90
2022-09-12T15:28:31.899Z,17.80
2022-09-12T15:30:04.259Z,17.70
2022-09-12T15:31:36.373Z,17.60
2022-09-12T15:33:10.532Z,17.60
2022-09-12T15:34:42.525Z,17.70
2022-09-12T15:36:17.632Z,17.80
2022-09-12T15:37:50.173Z,17.80
2022-09-12T15:39:23.218Z,17.80
2022-09-12T15:40:55.851Z,17.90
2022-09-12T15:42:29.739Z,18.00
2022-09-12T15:44:04.108Z,18.20
2022-09-12T15:45:36.541Z,18.10
2022-09-12T15:47:17.423Z,18.20
2022-09-12T15:48:50.283Z,18.20
2022-09-12T15:50:22.808Z,18.30
2022-09-12T15:51:55.016Z,18.30
2022-09-12T15:53:28.019Z,18.40
2022-09-12T15:55:00.102Z,18.30
2022-09-12T15:56:32.193Z,18.40
2022-09-12T15:58:07.222Z,18.40
2022-09-12T15:59:40.086Z,18.40
2022-09-12T16:01:13.776Z,18.30
2022-09-12T16:02:49.441Z,18.30
2022-09-12T16:04:24.086Z,18.20
2022-09-12T16:06:01.604Z,18.00
2022-09-12T16:07:33.707Z,17.80
2022-09-12T16:09:05.772Z,17.80
2022-09-12T16:10:38.873Z,17.70
2022-09-12T16:12:10.899Z,17.60
2022-09-12T16:13:42.884Z,17.60
2022-09-12T16:15:18.806Z,17.50
2022-09-12T16:16:54.655Z,17.50
2022-09-12T16:18:28.112Z,17.50
2022-09-12T16:20:00.150Z,17.20
2022-09-12T16:21:32.206Z,17.20
2022-09-12T16:23:04.499Z,17.20
2022-09-12T16:24:37.754Z,17.10
2022-09-12T16:26:10.073Z,17.10
2022-09-12T16:27:42.924Z,17.10
2022-09-12T16:29:15.463Z,17.00
2022-09-12T16:30:56.034Z,17.00
2022-09-12T16:32:28.283Z,16.80
2022-09-12T16:34:00.343Z,16.80
2022-09-12T16:35:32.861Z,16.80
2022-09-12T16:37:05.639Z,16.70
2022-09-12T16:38:42.765Z,16.70
2022-09-12T16:40:17.830Z,16.60
2022-09-12T16:41:50.151Z,16.50
2022-09-12T16:43:22.521Z,16.40
2022-09-12T16:44:54.560Z,16.30
2022-09-12T16:46:28.820Z,16.30
2022-09-12T16:48:01.392Z,16.20
2022-09-12T16:49:33.545Z,16.10
2022-09-12T16:51:07.323Z,16.00
2022-09-12T16:52:40.234Z,15.90
2022-09-12T16:54:14.647Z,15.80
2022-09-12T16:55:50.836Z,15.70
2022-09-12T16:57:23.383Z,15.60
2022-09-12T16:58:55.952Z,15.40
2022-09-12T17:00:28.716Z,15.40
2022-09-12T17:02:01.648Z,15.20
2022-09-12T17:03:36.013Z,15.10
2022-09-12T17:05:08.760Z,15.10
2022-09-12T17:06:41.954Z,15.00
2022-09-12T17:08:14.019Z,14.90
2022-09-12T17:09:48.059Z,14.90
2022-09-12T17:11:32.659Z,14.80
2022-09-12T17:13:04.991Z,14.70
2022-09-12T17:14:37.048Z,14.60
2022-09-12T17:16:11.722Z,14.50
2022-09-12T17:17:43.910Z,14.50
2022-09-12T17:19:22.237Z,14.40
2022-09-12T17:20:54.270Z,14.40
2022-09-12T17:22:26.374Z,14.30
2022-09-12T17:23:59.311Z,14.30
2022-09-12T17:25:31.551Z,14.20
2022-09-12T17:27:03.953Z,14.20
2022-09-12T17:28:37.771Z,14.10
2022-09-12T17:30:10.268Z,14.10
2022-09-12T17:31:44.130Z,14.00
2022-09-12T17:33:16.555Z,14.00
2022-09-12T17:34:48.627Z,14.00
2022-09-12T17:36:21.767Z,13.90
2022-09-12T17:37:54.355Z,13.90
2022-09-12T17:39:26.595Z,13.90
2022-09-12T17:41:08.442Z,13.80
2022-09-12T17:42:40.907Z,13.70
2022-09-12T17:44:15.167Z,13.70
2022-09-12T17:45:57.466Z,13.60
2022-09-12T17:47:29.845Z,13.60
2022-09-12T17:49:04.595Z,13.50
2022-09-12T17:50:39.527Z,13.50
2022-09-12T17:52:12.371Z,13.40
2022-09-12T17:53:44.696Z,13.40
2022-09-12T17:55:17.538Z,13.30
2022-09-12T17:56:51.518Z,13.30
2022-09-12T17:58:25.066Z,13.30
2022-09-12T17:59:57.332Z,13.30
2022-09-12T18:01:48.655Z,13.30
2022-09-12T18:03:23.092Z,13.20
2022-09-12T18:04:55.217Z,13.20
2022-09-12T18:06:28.562Z,13.20
2022-09-12T18:08:00.683Z,13.20
2022-09-12T18:09:33.002Z,13.20
2022-09-12T18:11:05.640Z,13.20
2022-09-12T18:12:37.947Z,13.20
2022-09-12T18:14:13.883Z,13.10
2022-09-12T18:15:46.903Z,13.10
2022-09-12T18:17:19.025Z,13.10
2022-09-12T18:18:51.214Z,13.10
2022-09-12T18:20:23.292Z,13.10
2022-09-12T18:21:56.407Z,13.10
2022-09-12T18:23:28.469Z,13.10
2022-09-12T18:25:00.636Z,13.10
2022-09-12T18:26:33.231Z,13.10
2022-09-12T18:28:09.261Z,13.10
2022-09-12T18:29:41.410Z,13.10
2022-09-12T18:31:15.987Z,13.10
2022-09-12T18:32:48.090Z,13.10
2022-09-12T18:34:20.566Z,13.10
2022-09-12T18:35:53.566Z,13.10
2022-09-12T18:37:25.597Z,13.00
2022-09-12T18:38:59.090Z,13.00
2022-09-12T18:40:31.374Z,13.00
2022-09-12T18:42:03.781Z,13.00
2022-09-12T18:43:36.051Z,13.00
2022-09-12T18:45:09.003Z,13.00
2022-09-12T18:46:41.781Z,13.00
2022-09-12T18:48:14.100Z,13.00
2022-09-12T18:49:46.175Z,13.00
2022-09-12T18:51:20.635Z,13.00
2022-09-12T18:52:56.686Z,13.00
2022-09-12T18:54:33.252Z,13.00
2022-09-12T18:56:12.779Z,13.00
2022-09-12T18:57:44.980Z,13.00
2022-09-12T18:59:17.389Z,13.00
2022-09-12T19:00:49.894Z,13.00
2022-09-12T19:02:22.138Z,13.10
2022-09-12T19:03:55.180Z,13.10
2022-09-12T19:05:28.223Z,13.10
2022-09-12T19:07:01.548Z,13.10
2022-09-12T19:08:35.483Z,13.20
2022-09-12T19:10:08.751Z,13.20
2022-09-12T19:11:48.695Z,13.20
2022-09-12T19:13:20.989Z,13.20
2022-09-12T19:14:53.012Z,13.30
2022-09-12T19:16:27.146Z,13.30
2022-09-12T19:18:00.102Z,13.30
2022-09-12T19:19:32.259Z,13.30
2022-09-12T19:21:05.483Z,13.30
2022-09-12T19:22:37.576Z,13.40
2022-09-12T19:24:10.887Z,13.40
2022-09-12T19:25:43.053Z,13.40
2022-09-12T19:27:16.109Z,13.40
2022-09-12T19:28:48.959Z,13.50
2022-09-12T19:30:21.549Z,13.40
2022-09-12T19:31:53.624Z,13.50
2022-09-12T19:33:26.121Z,13.50
2022-09-12T19:34:58.326Z,13.50
2022-09-12T19:36:47.312Z,13.50
2022-09-12T19:38:19.839Z,13.50
2022-09-12T19:39:51.919Z,13.50
2022-09-12T19:41:24.062Z,13.50
2022-09-12T19:42:56.428Z,13.50
2022-09-12T19:44:30.178Z,13.50
2022-09-12T19:46:02.972Z,13.50
2022-09-12T19:47:35.063Z,13.50
2022-09-12T19:49:07.334Z,13.50
2022-09-12T19:50:39.628Z,13.60
2022-09-12T19:52:14.444Z,13.60
2022-09-12T19:53:50.337Z,13.60
2022-09-12T19:55:22.594Z,13.60
2022-09-12T19:56:54.783Z,13.60
2022-09-12T19:58:27.856Z,13.60
2022-09-12T19:59:59.995Z,13.70
2022-09-12T20:01:32.721Z,13.60
2022-09-12T20:03:05.382Z,13.70
2022-09-12T20:04:39.044Z,13.70
2022-09-12T20:06:13.965Z,13.70
2022-09-12T20:07:46.598Z,13.60
2022-09-12T20:09:18.623Z,13.70
2022-09-12T20:10:55.063Z,13.70
2022-09-12T20:12:28.914Z,13.70
2022-09-12T20:14:01.265Z,13.60
2022-09-12T20:15:33.651Z,13.50
2022-09-12T20:17:05.848Z,13.40
2022-09-12T20:18:38.440Z,13.20
2022-09-12T20:20:11.029Z,13.10
2022-09-12T20:21:43.123Z,13.00
2022-09-12T20:23:15.164Z,12.90
2022-09-12T20:24:47.296Z,12.80
2022-09-12T20:26:20.523Z,12.70
2022-09-12T20:27:54.971Z,12.60
2022-09-12T20:29:30.247Z,12.50
2022-09-12T20:31:04.348Z,12.50
2022-09-12T20:32:36.711Z,12.40
2022-09-12T20:34:14.995Z,12.40
2022-09-12T20:35:47.092Z,12.30
2022-09-12T20:37:19.113Z,12.30
2022-09-12T20:38:56.933Z,12.20
2022-09-12T20:40:29.106Z,12.20
2022-09-12T20:42:06.103Z,12.20
2022-09-12T20:45:34.191Z,12.30
2022-09-12T20:47:06.263Z,12.30
2022-09-12T20:48:38.996Z,12.30
2022-09-12T20:50:11.151Z,12.30
2022-09-12T20:51:43.433Z,12.30
2022-09-12T20:53:15.823Z,12.40
2022-09-12T20:54:47.852Z,12.40
2022-09-12T20:56:20.178Z,12.40
2022-09-12T20:57:52.483Z,12.40
2022-09-12T20:59:24.499Z,12.40
2022-09-12T21:00:56.828Z,12.40
2022-09-12T21:02:29.837Z,12.40
2022-09-12T21:04:02.540Z,12.40
2022-09-12T21:05:34.639Z,12.50
2022-09-12T21:07:06.666Z,12.50
2022-09-12T21:08:39.339Z,12.50
2022-09-12T21:10:11.700Z,12.60
2022-09-12T21:11:43.791Z,12.60
2022-09-12T21:13:15.843Z,12.60
2022-09-12T21:14:47.866Z,12.70
2022-09-12T21:16:22.783Z,12.70
2022-09-12T21:17:55.053Z,12.70
2022-09-12T21:19:27.047Z,12.80
2022-09-12T21:20:59.273Z,12.80
2022-09-12T21:22:31.968Z,12.80
2022-09-12T21:24:04.363Z,12.70
2022-09-12T21:25:36.483Z,12.70
2022-09-12T21:27:08.487Z,12.70
2022-09-12T21:28:40.775Z,12.60
2022-09-12T21:30:14.113Z,12.60
2022-09-12T21:31:46.415Z,12.60
2022-09-12T21:33:20.298Z,12.60